Darstellungsparameter: Aktuell verwendete Einstellungen:
Skalierung der Graphiken ... ?
xyx+y,   Skalierungsfaktor:      Skalierung: Modus: x, Faktor: 1
Darstellungszeitraum ... ?
Vom - - bis: - -   Zeitraum: 21.04.2009 - 23.04.2009
Min/Max/Avg-Anzeige ... ?
Zeige MMA aktuell
Zeige MMA Monat
Zeige MMA alles
Zeige --A aktuell
Zeige --A Monat
Zeige --A alles
Keine MMA-Anzeige
MMA:
Average (ber die Originaldaten)
MMA-Basis: 21.04.2009 - 23.04.2009
Quicknavigation für Darstellung... ?
Tage:      1T, 2T, 3T, 5T -1T -2T -3T -5T +1T +2T +3T +5T
Wochen: 1W, 2W, 3W -1W -2W -3W +1W +2W +3W
Monate: 1M, 3M, 6M -1M -3M -6M +1M +3M +6M
Jahre:    1J, 3J, 5J, 10J -1J -3J -5J -10J +1J +3J +5J +10J
Nutze für die Darstellung ... ?
Originaldaten oder Mittelwerte auf ...
Stundenbasis Tagesbasis Wochenbasis
Monatsbasis Jahresbasis      Datenbasis: Original-Daten
Darstellen als:
Statistik (Auto) Statistik J:M      Darstellung:
Zur Graphik,    zurück zur Übersicht aller Sensoren.
 
Tabellarische Datenbersicht: ?
 
Sensor: Nr:Datum:Temp:Abs-Feuchte:Windchill:Wind:
Aussen-T/F 1 21-04-2009 00:05:55 13.2 C 5.63 g/m*3 13.2 C 0 km/h
2 21-04-2009 00:17:55 13.2 C 5.74 g/m*3 13.2 C 0 km/h
3 21-04-2009 00:29:55 12.9 C 5.75 g/m*3 12.9 C 0 km/h
4 21-04-2009 00:41:55 12.8 C 5.71 g/m*3 12.8 C 0 km/h
5 21-04-2009 00:53:55 12.5 C 5.72 g/m*3 12.5 C 0 km/h
6 21-04-2009 01:05:55 12.3 C 5.75 g/m*3 12.3 C 0 km/h
7 21-04-2009 01:17:55 11.9 C 5.93 g/m*3 11.9 C 0 km/h
8 21-04-2009 01:29:55 11.5 C 5.99 g/m*3 11.5 C 0 km/h
9 21-04-2009 01:41:55 11.4 C 5.95 g/m*3 11.4 C 0 km/h
10 21-04-2009 01:53:55 11.1 C 6.04 g/m*3 11.1 C 0 km/h
11 21-04-2009 02:05:55 10.7 C 5.99 g/m*3 10.7 C 0 km/h
12 21-04-2009 02:17:56 10.6 C 5.86 g/m*3 10.6 C 0 km/h
13 21-04-2009 02:29:56 10.5 C 5.92 g/m*3 10.5 C 0 km/h
14 21-04-2009 02:41:56 10.2 C 6 g/m*3 10.2 C 0 km/h
15 21-04-2009 02:53:56 10 C 6.01 g/m*3 10 C 0 km/h
16 21-04-2009 03:05:56 9.8 C 6.03 g/m*3 9.8 C 0 km/h
17 21-04-2009 03:17:56 9.6 C 6.05 g/m*3 9.6 C 0 km/h
18 21-04-2009 03:29:56 9.3 C 5.93 g/m*3 9.3 C 0 km/h
19 21-04-2009 03:41:56 9.2 C 5.98 g/m*3 9.2 C 0 km/h
20 21-04-2009 03:53:56 9 C 5.99 g/m*3 9 C 0 km/h
21 21-04-2009 04:05:56 8.8 C 6.01 g/m*3 8.8 C 0 km/h
22 21-04-2009 04:17:56 8.7 C 6.05 g/m*3 8.7 C 0 km/h
23 21-04-2009 04:29:56 8.5 C 6.15 g/m*3 8.5 C 0 km/h
24 21-04-2009 04:41:56 8.2 C 6.2 g/m*3 8.2 C 0 km/h
25 21-04-2009 04:53:56 8.1 C 6.16 g/m*3 8.1 C 0 km/h
Sensor: Nr:Datum:Temp:Abs-Feuchte:Windchill:Wind:
Aussen-T/F 26 21-04-2009 05:05:56 7.9 C 6.16 g/m*3 7.9 C 0 km/h
27 21-04-2009 05:17:56 7.9 C 6.24 g/m*3 7.9 C 0 km/h
28 21-04-2009 05:29:56 7.7 C 6.16 g/m*3 7.7 C 0 km/h
29 21-04-2009 05:41:56 7.6 C 6.28 g/m*3 7.6 C 0 km/h
30 21-04-2009 05:53:56 7.5 C 6.24 g/m*3 7.5 C 0 km/h
31 21-04-2009 06:05:57 7.4 C 6.28 g/m*3 7.4 C 0 km/h
32 21-04-2009 06:17:57 7.2 C 6.2 g/m*3 7.2 C 0 km/h
33 21-04-2009 06:29:57 7.1 C 6.24 g/m*3 7.1 C 0 km/h
34 21-04-2009 06:41:57 7.1 C 6.24 g/m*3 7.1 C 0 km/h
35 21-04-2009 06:53:55 7.1 C 6.32 g/m*3 7.1 C 0 km/h
36 21-04-2009 07:05:55 7.1 C 6.32 g/m*3 7.1 C 0 km/h
37 21-04-2009 07:17:54 7.1 C 6.32 g/m*3 7.1 C 0 km/h
38 21-04-2009 07:29:54 7.1 C 6.4 g/m*3 7.1 C 0 km/h
39 21-04-2009 07:41:54 7.3 C 6.48 g/m*3 7.3 C 0 km/h
40 21-04-2009 07:53:54 7.4 C 6.52 g/m*3 7.4 C 0 km/h
41 21-04-2009 08:05:54 7.5 C 6.64 g/m*3 7.5 C 0 km/h
42 21-04-2009 08:17:54 7.8 C 6.69 g/m*3 7.8 C 0 km/h
43 21-04-2009 08:29:54 8 C 6.7 g/m*3 8 C 0 km/h
44 21-04-2009 08:41:54 8.2 C 6.78 g/m*3 8.2 C 0 km/h
45 21-04-2009 08:53:53 8.5 C 6.83 g/m*3 8.5 C 0 km/h
46 21-04-2009 09:05:53 8.9 C 6.92 g/m*3 8.9 C 0 km/h
47 21-04-2009 09:17:54 9.4 C 7.15 g/m*3 9.4 C 0 km/h
48 21-04-2009 09:29:54 10.2 C 7.23 g/m*3 10.2 C 0 km/h
49 21-04-2009 09:41:53 10.8 C 7.31 g/m*3 10.8 C 0 km/h
50 21-04-2009 09:53:53 11.5 C 7.33 g/m*3 11.5 C 0 km/h
Sensor: Nr:Datum:Temp:Abs-Feuchte:Windchill:Wind:
Aussen-T/F 51 21-04-2009 10:05:53 12.2 C 7.01 g/m*3 12.2 C 0 km/h
52 21-04-2009 10:17:53 12.7 C 7.01 g/m*3 12.7 C 0 km/h
53 21-04-2009 10:29:53 13.4 C 7.09 g/m*3 13.4 C 0 km/h
54 21-04-2009 10:41:52 14 C 7 g/m*3 14 C 0 km/h
55 21-04-2009 10:53:53 14.7 C 7.05 g/m*3 14.7 C 0 km/h
56 21-04-2009 11:05:52 15.3 C 6.66 g/m*3 15.3 C 0 km/h
57 21-04-2009 11:17:52 15.9 C 6.09 g/m*3 15.9 C 0 km/h
58 21-04-2009 11:29:52 16.4 C 6.14 g/m*3 16.4 C 0 km/h
59 21-04-2009 11:41:52 16.8 C 6 g/m*3 16.8 C 0 km/h
60 21-04-2009 11:53:52 16.9 C 5.32 g/m*3 16.9 C 0 km/h
61 21-04-2009 12:05:52 17.2 C 5.42 g/m*3 17.2 C 0 km/h
62 21-04-2009 12:17:52 17.8 C 5.46 g/m*3 17.8 C 0 km/h
63 21-04-2009 12:29:52 18.7 C 5.6 g/m*3 18.7 C 0 km/h
64 21-04-2009 12:41:52 19.2 C 5.28 g/m*3 19.2 C 0 km/h
65 21-04-2009 12:53:52 19.7 C 5.6 g/m*3 19.7 C 0 km/h
66 21-04-2009 13:05:51 20 C 5.53 g/m*3 20 C 0 km/h
67 21-04-2009 13:17:51 21 C 5.5 g/m*3 21 C 0 km/h
68 21-04-2009 13:29:51 20.6 C 5.19 g/m*3 20.6 C 0 km/h
69 21-04-2009 13:41:50 21.3 C 4.85 g/m*3 21.3 C 0 km/h
70 21-04-2009 13:53:51 21.3 C 4.85 g/m*3 21.3 C 0 km/h
71 21-04-2009 14:05:50 21.6 C 5.12 g/m*3 21.6 C 0 km/h
72 21-04-2009 14:17:50 22.3 C 4.54 g/m*3 22.3 C 0 km/h
73 21-04-2009 14:29:50 22.2 C 4.71 g/m*3 22.2 C 0 km/h
74 21-04-2009 14:41:51 23.1 C 4.55 g/m*3 23.1 C 0 km/h
75 21-04-2009 14:53:50 23.7 C 4.49 g/m*3 23.7 C 0 km/h
Sensor: Nr:Datum:Temp:Abs-Feuchte:Windchill:Wind:
Aussen-T/F 76 21-04-2009 15:05:50 24.6 C 4.5 g/m*3 24.6 C 0 km/h
77 21-04-2009 15:17:50 24 C 4.35 g/m*3 24 C 0 km/h
78 21-04-2009 15:29:50 23.6 C 4.25 g/m*3 23.6 C 0 km/h
79 21-04-2009 15:41:50 24.4 C 4.45 g/m*3 24.4 C 0 km/h
80 21-04-2009 15:53:49 24.6 C 4.5 g/m*3 24.6 C 0 km/h
81 21-04-2009 16:05:50 25.7 C 4.79 g/m*3 25.7 C 0 km/h
82 21-04-2009 16:17:49 25.9 C 4.84 g/m*3 25.9 C 0 km/h
83 21-04-2009 16:29:49 26.2 C 4.92 g/m*3 26.2 C 0 km/h
84 21-04-2009 16:41:49 25.5 C 4.73 g/m*3 25.5 C 0 km/h
85 21-04-2009 16:53:49 25.2 C 4.66 g/m*3 25.2 C 0 km/h
86 21-04-2009 17:05:49 25.5 C 4.73 g/m*3 25.5 C 0 km/h
87 21-04-2009 17:17:49 25.6 C 4.76 g/m*3 25.6 C 0 km/h
88 21-04-2009 17:29:49 26 C 4.87 g/m*3 26 C 0 km/h
89 21-04-2009 17:41:48 26.1 C 4.9 g/m*3 26.1 C 0 km/h
90 21-04-2009 17:53:49 25.4 C 4.71 g/m*3 25.4 C 0 km/h
91 21-04-2009 18:05:48 24.4 C 4.45 g/m*3 24.4 C 0 km/h
92 21-04-2009 18:17:48 25 C 4.6 g/m*3 25 C 0 km/h
93 21-04-2009 18:29:48 24.7 C 4.53 g/m*3 24.7 C 0 km/h
94 21-04-2009 18:41:48 24.4 C 4.45 g/m*3 24.4 C 0 km/h
95 21-04-2009 18:53:48 24.2 C 4.4 g/m*3 24.2 C 0 km/h
96 21-04-2009 19:05:47 23.7 C 4.28 g/m*3 23.7 C 0 km/h
97 21-04-2009 19:17:48 24 C 4.35 g/m*3 24 C 0 km/h
98 21-04-2009 19:29:48 23.4 C 4.21 g/m*3 23.4 C 0 km/h
99 21-04-2009 19:41:48 23 C 4.11 g/m*3 23 C 0 km/h
100 21-04-2009 19:53:47 22 C 4.08 g/m*3 22 C 0 km/h
Sensor: Nr:Datum:Temp:Abs-Feuchte:Windchill:Wind:
Aussen-T/F 101 21-04-2009 20:05:48 21.7 C 4.2 g/m*3 21.7 C 0 km/h
102 21-04-2009 20:17:47 20.4 C 4.42 g/m*3 20.4 C 0 km/h
103 21-04-2009 20:29:47 19.8 C 4.44 g/m*3 19.8 C 0 km/h
104 21-04-2009 20:41:47 19.2 C 4.12 g/m*3 19.2 C 0 km/h
105 21-04-2009 20:53:46 18.7 C 4.64 g/m*3 18.7 C 0 km/h
106 21-04-2009 21:05:46 18.4 C 4.72 g/m*3 18.4 C 0 km/h
107 21-04-2009 21:17:47 17.9 C 4.73 g/m*3 17.9 C 0 km/h
108 21-04-2009 21:29:48 17.8 C 4.86 g/m*3 17.8 C 0 km/h
109 21-04-2009 21:41:46 17.5 C 5.22 g/m*3 17.5 C 0 km/h
110 21-04-2009 21:53:46 17.3 C 5.3 g/m*3 17.3 C 0 km/h
111 21-04-2009 22:05:45 17.1 C 5.39 g/m*3 17.1 C 0 km/h
112 21-04-2009 22:17:46 16.9 C 5.61 g/m*3 16.9 C 0 km/h
113 21-04-2009 22:29:46 16.7 C 5.68 g/m*3 16.7 C 0 km/h
114 21-04-2009 22:41:46 16.3 C 5.55 g/m*3 16.3 C 0 km/h
115 21-04-2009 22:54:46 16.2 C 5.65 g/m*3 16.2 C 0 km/h
116 21-04-2009 23:06:46 16 C 5.72 g/m*3 16 C 0 km/h
117 21-04-2009 23:18:46 15.5 C 5.95 g/m*3 15.5 C 0 km/h
118 21-04-2009 23:30:46 15.5 C 5.82 g/m*3 15.5 C 0 km/h
119 21-04-2009 23:42:46 15.1 C 5.81 g/m*3 15.1 C 0 km/h
120 21-04-2009 23:54:46 15.1 C 5.81 g/m*3 15.1 C 0 km/h
121 22-04-2009 00:06:46 14.8 C 5.95 g/m*3 14.8 C 0 km/h
122 22-04-2009 00:18:46 14.7 C 6.04 g/m*3 14.7 C 0 km/h
123 22-04-2009 00:30:46 14.6 C 5.88 g/m*3 14.6 C 0 km/h
124 22-04-2009 00:42:47 14.5 C 5.97 g/m*3 14.5 C 0 km/h
125 22-04-2009 00:54:47 14.1 C 5.83 g/m*3 14.1 C 0 km/h
Sensor: Nr:Datum:Temp:Abs-Feuchte:Windchill:Wind:
Aussen-T/F 126 22-04-2009 01:06:47 13.9 C 5.99 g/m*3 13.9 C 0 km/h
127 22-04-2009 01:18:47 13.7 C 6.04 g/m*3 13.7 C 0 km/h
128 22-04-2009 01:30:47 13.2 C 6.09 g/m*3 13.2 C 0 km/h
129 22-04-2009 01:42:47 13.1 C 6.28 g/m*3 13.1 C 0 km/h
130 22-04-2009 01:54:47 13 C 6.01 g/m*3 13 C 0 km/h
131 22-04-2009 02:06:47 13 C 6.12 g/m*3 13 C 0 km/h
132 22-04-2009 02:18:47 12.8 C 6.16 g/m*3 12.8 C 0 km/h
133 22-04-2009 02:30:47 12.6 C 6.2 g/m*3 12.6 C 0 km/h
134 22-04-2009 02:42:47 12.3 C 6.19 g/m*3 12.3 C 0 km/h
135 22-04-2009 02:54:47 12.1 C 6.22 g/m*3 12.1 C 0 km/h
136 22-04-2009 03:06:47 11.8 C 6.31 g/m*3 11.8 C 0 km/h
137 22-04-2009 03:18:47 11.7 C 6.28 g/m*3 11.7 C 0 km/h
138 22-04-2009 03:30:47 11.8 C 6.21 g/m*3 11.8 C 0 km/h
139 22-04-2009 03:42:47 11.7 C 6.17 g/m*3 11.7 C 0 km/h
140 22-04-2009 03:54:47 11.3 C 6.12 g/m*3 11.3 C 0 km/h
141 22-04-2009 04:06:47 11 C 6.01 g/m*3 11 C 0 km/h
142 22-04-2009 04:18:47 10.9 C 5.97 g/m*3 10.9 C 0 km/h
143 22-04-2009 04:30:48 10.8 C 5.93 g/m*3 10.8 C 0 km/h
144 22-04-2009 04:42:48 10.7 C 5.99 g/m*3 10.7 C 0 km/h
145 22-04-2009 04:54:48 10.5 C 6.01 g/m*3 10.5 C 0 km/h
146 22-04-2009 05:06:48 10.7 C 6.09 g/m*3 10.7 C 0 km/h
147 22-04-2009 05:18:48 10.6 C 6.05 g/m*3 10.6 C 0 km/h
148 22-04-2009 05:30:48 10.3 C 6.13 g/m*3 10.3 C 0 km/h
149 22-04-2009 05:42:48 10 C 6.11 g/m*3 10 C 0 km/h
150 22-04-2009 05:54:48 9.9 C 6.26 g/m*3 9.9 C 0 km/h
Sensor: Nr:Datum:Temp:Abs-Feuchte:Windchill:Wind:
Aussen-T/F 151 22-04-2009 06:06:48 9.9 C 6.44 g/m*3 9.9 C 0 km/h
152 22-04-2009 06:18:48 9.7 C 6.45 g/m*3 9.7 C 0 km/h
153 22-04-2009 06:30:48 9.6 C 6.5 g/m*3 9.6 C 0 km/h
154 22-04-2009 06:42:48 9.6 C 6.69 g/m*3 9.6 C 0 km/h
155 22-04-2009 06:54:48 9.6 C 6.69 g/m*3 9.6 C 0 km/h
156 22-04-2009 07:06:48 9.7 C 6.82 g/m*3 9.7 C 0 km/h
157 22-04-2009 07:18:48 9.7 C 6.82 g/m*3 9.7 C 0 km/h
158 22-04-2009 07:30:48 9.8 C 6.87 g/m*3 9.8 C 0 km/h
159 22-04-2009 07:42:48 9.9 C 6.91 g/m*3 9.9 C 0 km/h
160 22-04-2009 07:54:46 10.1 C 7 g/m*3 10.1 C 0 km/h
161 22-04-2009 08:06:46 10.3 C 6.99 g/m*3 10.3 C 0 km/h
162 22-04-2009 08:18:47 10.4 C 6.84 g/m*3 10.4 C 0 km/h
163 22-04-2009 08:30:46 10.5 C 6.89 g/m*3 10.5 C 0 km/h
164 22-04-2009 08:42:46 10.5 C 6.79 g/m*3 10.5 C 0 km/h
165 22-04-2009 08:54:46 10.6 C 6.73 g/m*3 10.6 C 0 km/h
166 22-04-2009 09:06:46 10.7 C 6.68 g/m*3 10.7 C 0 km/h
167 22-04-2009 09:18:46 11 C 6.71 g/m*3 11 C 0 km/h
168 22-04-2009 09:30:45 11.2 C 6.69 g/m*3 11.2 C 0 km/h
169 22-04-2009 09:42:45 10.7 C 6.38 g/m*3 10.7 C 0 km/h
170 22-04-2009 09:54:46 11.2 C 6.49 g/m*3 11.2 C 0 km/h
171 22-04-2009 10:06:45 11.4 C 5.95 g/m*3 11.4 C 0 km/h
172 22-04-2009 10:18:45 11.8 C 5.79 g/m*3 11.8 C 0 km/h
173 22-04-2009 10:30:45 11.8 C 5.89 g/m*3 11.8 C 0 km/h
174 22-04-2009 10:42:45 12.4 C 6.01 g/m*3 12.4 C 0 km/h
175 22-04-2009 10:54:45 12.9 C 5.64 g/m*3 12.9 C 0 km/h
Sensor: Nr:Datum:Temp:Abs-Feuchte:Windchill:Wind:
Aussen-T/F 176 22-04-2009 11:06:45 13.1 C 5.59 g/m*3 13.1 C 0 km/h
177 22-04-2009 11:18:44 13.3 C 5.66 g/m*3 13.3 C 0 km/h
178 22-04-2009 11:30:45 14 C 5.67 g/m*3 14 C 0 km/h
179 22-04-2009 11:42:45 14.6 C 5.51 g/m*3 14.6 C 0 km/h
180 22-04-2009 11:54:44 15 C 5.39 g/m*3 15 C 0 km/h
181 22-04-2009 12:06:44 15.7 C 5.62 g/m*3 15.7 C 0 km/h
182 22-04-2009 12:18:44 16.1 C 5.76 g/m*3 16.1 C 0 km/h
183 22-04-2009 12:30:44 15.7 C 5.62 g/m*3 15.7 C 0 km/h
184 22-04-2009 12:42:44 16 C 5.59 g/m*3 16 C 0 km/h
185 22-04-2009 12:54:43 16.2 C 5.52 g/m*3 16.2 C 0 km/h
186 22-04-2009 13:06:44 17.1 C 5.68 g/m*3 17.1 C 0 km/h
187 22-04-2009 13:18:43 17.5 C 5.96 g/m*3 17.5 C 0 km/h
188 22-04-2009 13:30:43 16.7 C 5.4 g/m*3 16.7 C 0 km/h
189 22-04-2009 13:42:43 17.2 C 5.56 g/m*3 17.2 C 0 km/h
190 22-04-2009 13:54:43 17 C 5.35 g/m*3 17 C 0 km/h
191 22-04-2009 14:06:43 16.6 C 5.51 g/m*3 16.6 C 0 km/h
192 22-04-2009 14:18:43 17.2 C 5.42 g/m*3 17.2 C 0 km/h
193 22-04-2009 14:30:42 17.8 C 5.46 g/m*3 17.8 C 0 km/h
194 22-04-2009 14:42:42 16.8 C 5.15 g/m*3 16.8 C 0 km/h
195 22-04-2009 14:54:43 17.4 C 5.48 g/m*3 17.4 C 0 km/h
196 22-04-2009 15:06:42 16.9 C 5.03 g/m*3 16.9 C 0 km/h
197 22-04-2009 15:18:42 17.5 C 4.92 g/m*3 17.5 C 0 km/h
198 22-04-2009 15:30:42 17.1 C 4.8 g/m*3 17.1 C 0 km/h
199 22-04-2009 15:42:42 16.4 C 5.02 g/m*3 16.4 C 0 km/h
200 22-04-2009 15:54:42 16.7 C 5.12 g/m*3 16.7 C 0 km/h
Sensor: Nr:Datum:Temp:Abs-Feuchte:Windchill:Wind:
Aussen-T/F 201 22-04-2009 16:06:42 18 C 4.15 g/m*3 18 C 0 km/h
202 22-04-2009 16:18:41 18 C 3.38 g/m*3 18 C 0 km/h
203 22-04-2009 16:30:42 17.9 C 3.05 g/m*3 17.9 C 0 km/h
204 22-04-2009 16:42:42 18.2 C 3.11 g/m*3 18.2 C 0 km/h
205 22-04-2009 16:54:41 19.1 C 3.28 g/m*3 19.1 C 0 km/h
206 22-04-2009 17:06:41 18.4 C 3.15 g/m*3 18.4 C 0 km/h
207 22-04-2009 17:18:41 18.5 C 3.16 g/m*3 18.5 C 0 km/h
208 22-04-2009 17:30:41 19.6 C 3.38 g/m*3 19.6 C 0 km/h
209 22-04-2009 17:42:41 19 C 3.26 g/m*3 19 C 0 km/h
210 22-04-2009 17:54:41 19 C 3.26 g/m*3 19 C 0 km/h
211 22-04-2009 18:06:41 17.8 C 3.79 g/m*3 17.8 C 0 km/h
212 22-04-2009 18:18:40 18 C 3.84 g/m*3 18 C 0 km/h
213 22-04-2009 18:30:40 17.8 C 3.95 g/m*3 17.8 C 0 km/h
214 22-04-2009 18:42:40 17.1 C 3.93 g/m*3 17.1 C 0 km/h
215 22-04-2009 18:54:40 17.7 C 3.92 g/m*3 17.7 C 0 km/h
216 22-04-2009 19:06:40 17.4 C 4 g/m*3 17.4 C 0 km/h
217 22-04-2009 19:18:40 16.5 C 4.21 g/m*3 16.5 C 0 km/h
218 22-04-2009 19:30:40 16.1 C 4.11 g/m*3 16.1 C 0 km/h
219 22-04-2009 19:42:40 16.6 C 4.38 g/m*3 16.6 C 0 km/h
220 22-04-2009 19:54:39 16.5 C 4.21 g/m*3 16.5 C 0 km/h
221 22-04-2009 20:06:39 16.4 C 3.91 g/m*3 16.4 C 0 km/h
222 22-04-2009 20:18:40 15.6 C 3.59 g/m*3 15.6 C 0 km/h
223 22-04-2009 20:30:39 14.8 C 3.8 g/m*3 14.8 C 0 km/h
224 22-04-2009 20:42:39 14.2 C 3.66 g/m*3 14.2 C 0 km/h
225 22-04-2009 20:54:39 13.8 C 3.57 g/m*3 13.8 C 0 km/h
Sensor: Nr:Datum:Temp:Abs-Feuchte:Windchill:Wind:
Aussen-T/F 226 22-04-2009 21:06:39 13.3 C 3.47 g/m*3 13.3 C 0 km/h
227 22-04-2009 21:18:39 13 C 3.4 g/m*3 13 C 0 km/h
228 22-04-2009 21:30:39 12.7 C 3.67 g/m*3 12.7 C 0 km/h
229 22-04-2009 21:42:39 12.4 C 3.61 g/m*3 12.4 C 0 km/h
230 22-04-2009 21:54:38 12.1 C 3.54 g/m*3 12.1 C 0 km/h
231 22-04-2009 22:06:39 12 C 3.62 g/m*3 12 C 0 km/h
232 22-04-2009 22:19:39 11.9 C 3.71 g/m*3 11.9 C 0 km/h
233 22-04-2009 22:31:39 11.7 C 3.77 g/m*3 11.7 C 0 km/h
234 22-04-2009 22:43:39 11.4 C 3.8 g/m*3 11.4 C 0 km/h
235 22-04-2009 22:55:39 11.3 C 3.88 g/m*3 11.3 C 0 km/h
236 22-04-2009 23:07:39 11 C 3.9 g/m*3 11 C 0 km/h
237 22-04-2009 23:19:39 10.8 C 4.05 g/m*3 10.8 C 0 km/h
238 22-04-2009 23:31:39 10.2 C 4 g/m*3 10.2 C 0 km/h
239 22-04-2009 23:43:39 10.1 C 4.16 g/m*3 10.1 C 0 km/h
240 22-04-2009 23:55:39 10 C 4.23 g/m*3 10 C 0 km/h
241 23-04-2009 00:07:39 9.7 C 4.24 g/m*3 9.7 C 0 km/h
242 23-04-2009 00:19:39 9.5 C 4.28 g/m*3 9.5 C 0 km/h
243 23-04-2009 00:31:39 9.2 C 4.46 g/m*3 9.2 C 0 km/h
244 23-04-2009 00:43:39 8.9 C 4.47 g/m*3 8.9 C 0 km/h
245 23-04-2009 00:55:39 8.6 C 4.73 g/m*3 8.6 C 0 km/h
246 23-04-2009 01:07:39 8.5 C 4.7 g/m*3 8.5 C 0 km/h
247 23-04-2009 01:19:39 8.4 C 4.67 g/m*3 8.4 C 0 km/h
248 23-04-2009 01:31:39 8.1 C 4.66 g/m*3 8.1 C 0 km/h
249 23-04-2009 01:43:39 8.1 C 4.66 g/m*3 8.1 C 0 km/h
250 23-04-2009 01:55:39 7.8 C 4.82 g/m*3 7.8 C 0 km/h
Sensor: Nr:Datum:Temp:Abs-Feuchte:Windchill:Wind:
Aussen-T/F 251 23-04-2009 02:07:39 7.7 C 4.7 g/m*3 7.7 C 0 km/h
252 23-04-2009 02:19:40 7.4 C 4.85 g/m*3 7.4 C 0 km/h
253 23-04-2009 02:31:40 7.6 C 4.83 g/m*3 7.6 C 0 km/h
254 23-04-2009 02:43:40 7.7 C 4.87 g/m*3 7.7 C 0 km/h
255 23-04-2009 02:55:40 7.3 C 4.98 g/m*3 7.3 C 0 km/h
256 23-04-2009 03:07:40 7.1 C 4.91 g/m*3 7.1 C 0 km/h
257 23-04-2009 03:19:40 7.1 C 4.91 g/m*3 7.1 C 0 km/h
258 23-04-2009 03:31:40 7.1 C 4.91 g/m*3 7.1 C 0 km/h
259 23-04-2009 03:43:40 7 C 4.96 g/m*3 7 C 0 km/h
260 23-04-2009 03:55:40 6.9 C 5.08 g/m*3 6.9 C 0 km/h
261 23-04-2009 04:07:40 6.6 C 5.06 g/m*3 6.6 C 0 km/h
262 23-04-2009 04:19:40 6.2 C 5.15 g/m*3 6.2 C 0 km/h
263 23-04-2009 04:31:40 6.3 C 5.33 g/m*3 6.3 C 0 km/h
264 23-04-2009 04:43:40 6.3 C 5.4 g/m*3 6.3 C 0 km/h
265 23-04-2009 04:55:40 6.5 C 5.47 g/m*3 6.5 C 0 km/h
266 23-04-2009 05:07:40 6.7 C 5.47 g/m*3 6.7 C 0 km/h
267 23-04-2009 05:19:40 6.5 C 5.47 g/m*3 6.5 C 0 km/h
268 23-04-2009 05:31:40 6.5 C 5.55 g/m*3 6.5 C 0 km/h
269 23-04-2009 05:43:40 6.8 C 5.66 g/m*3 6.8 C 0 km/h
270 23-04-2009 05:55:40 6.8 C 5.58 g/m*3 6.8 C 0 km/h
271 23-04-2009 06:07:41 6.8 C 5.66 g/m*3 6.8 C 0 km/h
272 23-04-2009 06:19:41 7 C 5.66 g/m*3 7 C 0 km/h
273 23-04-2009 06:31:41 7 C 5.66 g/m*3 7 C 0 km/h
274 23-04-2009 06:43:41 6.9 C 5.62 g/m*3 6.9 C 0 km/h
275 23-04-2009 06:55:41 7 C 5.66 g/m*3 7 C 0 km/h
Sensor: Nr:Datum:Temp:Abs-Feuchte:Windchill:Wind:
Aussen-T/F 276 23-04-2009 07:07:39 7.1 C 5.69 g/m*3 7.1 C 0 km/h
277 23-04-2009 07:19:39 7 C 5.66 g/m*3 7 C 0 km/h
278 23-04-2009 07:31:38 7.1 C 5.77 g/m*3 7.1 C 0 km/h
279 23-04-2009 07:43:38 7.1 C 5.69 g/m*3 7.1 C 0 km/h
280 23-04-2009 07:55:39 7.4 C 5.81 g/m*3 7.4 C 0 km/h
281 23-04-2009 08:07:38 7.7 C 5.84 g/m*3 7.7 C 0 km/h
282 23-04-2009 08:19:38 7.9 C 5.83 g/m*3 7.9 C 0 km/h
283 23-04-2009 08:31:38 8.4 C 5.94 g/m*3 8.4 C 0 km/h
284 23-04-2009 08:43:38 8.5 C 5.89 g/m*3 8.5 C 0 km/h
285 23-04-2009 08:55:38 8.6 C 5.93 g/m*3 8.6 C 0 km/h
286 23-04-2009 09:07:38 9 C 5.82 g/m*3 9 C 0 km/h
287 23-04-2009 09:19:37 9.5 C 5.92 g/m*3 9.5 C 0 km/h
288 23-04-2009 09:31:37 9.8 C 5.85 g/m*3 9.8 C 0 km/h
289 23-04-2009 09:43:37 10.3 C 5.75 g/m*3 10.3 C 0 km/h
290 23-04-2009 09:55:37 11 C 5.81 g/m*3 11 C 0 km/h
291 23-04-2009 10:07:37 11.5 C 5.58 g/m*3 11.5 C 0 km/h
292 23-04-2009 10:19:37 11.7 C 5.33 g/m*3 11.7 C 0 km/h
293 23-04-2009 10:31:37 11.1 C 5.24 g/m*3 11.1 C 0 km/h
294 23-04-2009 10:43:37 10.8 C 5.24 g/m*3 10.8 C 0 km/h
295 23-04-2009 10:55:36 10.9 C 5.07 g/m*3 10.9 C 0 km/h
296 23-04-2009 11:07:36 11.2 C 5.07 g/m*3 11.2 C 0 km/h
297 23-04-2009 11:19:37 11.9 C 5.3 g/m*3 11.9 C 0 km/h
298 23-04-2009 11:31:36 12 C 4.9 g/m*3 12 C 0 km/h
299 23-04-2009 11:43:36 11.6 C 4.57 g/m*3 11.6 C 0 km/h
300 23-04-2009 11:55:36 12.7 C 4.79 g/m*3 12.7 C 0 km/h
Sensor: Nr:Datum:Temp:Abs-Feuchte:Windchill:Wind:
Aussen-T/F 301 23-04-2009 12:07:36 13.9 C 4.2 g/m*3 13.9 C 0 km/h
302 23-04-2009 12:19:36 13.3 C 4.39 g/m*3 13.3 C 0 km/h
303 23-04-2009 12:31:36 13.1 C 4.11 g/m*3 13.1 C 0 km/h
304 23-04-2009 12:43:36 14 C 4.34 g/m*3 14 C 0 km/h
305 23-04-2009 12:55:35 14 C 4.22 g/m*3 14 C 0 km/h
306 23-04-2009 13:07:36 14.1 C 4.37 g/m*3 14.1 C 0 km/h
307 23-04-2009 13:19:35 16 C 4.09 g/m*3 16 C 0 km/h
308 23-04-2009 13:31:35 15.2 C 4.15 g/m*3 15.2 C 0 km/h
309 23-04-2009 13:43:35 16.2 C 4.27 g/m*3 16.2 C 0 km/h
310 23-04-2009 13:55:35 16.9 C 4.46 g/m*3 16.9 C 0 km/h
311 23-04-2009 14:07:35 15 C 4.23 g/m*3 15 C 0 km/h
312 23-04-2009 14:19:34 15 C 4.49 g/m*3 15 C 0 km/h
313 23-04-2009 14:31:35 15 C 4.23 g/m*3 15 C 0 km/h
314 23-04-2009 14:43:36 15.2 C 4.54 g/m*3 15.2 C 0 km/h
315 23-04-2009 14:55:34 16.7 C 4.69 g/m*3 16.7 C 0 km/h
316 23-04-2009 15:07:34 17.9 C 4.43 g/m*3 17.9 C 0 km/h
317 23-04-2009 15:19:34 18.5 C 3.64 g/m*3 18.5 C 0 km/h
318 23-04-2009 15:31:34 17.5 C 3.88 g/m*3 17.5 C 0 km/h
319 23-04-2009 15:43:34 18 C 3.84 g/m*3 18 C 0 km/h
320 23-04-2009 15:55:33 18.1 C 3.55 g/m*3 18.1 C 0 km/h
321 23-04-2009 16:07:33 16.6 C 3.81 g/m*3 16.6 C 0 km/h
322 23-04-2009 16:19:34 17.7 C 3.92 g/m*3 17.7 C 0 km/h
323 23-04-2009 16:31:33 18.1 C 3.71 g/m*3 18.1 C 0 km/h
324 23-04-2009 16:43:33 19.5 C 3.86 g/m*3 19.5 C 0 km/h
325 23-04-2009 16:55:33 18.1 C 3.4 g/m*3 18.1 C 0 km/h
Sensor: Nr:Datum:Temp:Abs-Feuchte:Windchill:Wind:
Aussen-T/F 326 23-04-2009 17:07:33 20.1 C 3.65 g/m*3 20.1 C 0 km/h
327 23-04-2009 17:19:33 20.4 C 3.71 g/m*3 20.4 C 0 km/h
328 23-04-2009 17:31:32 19.7 C 3.57 g/m*3 19.7 C 0 km/h
329 23-04-2009 17:43:32 18.6 C 3.82 g/m*3 18.6 C 0 km/h
330 23-04-2009 17:55:33 18.1 C 4.02 g/m*3 18.1 C 0 km/h
331 23-04-2009 18:07:32 17.7 C 4.07 g/m*3 17.7 C 0 km/h
332 23-04-2009 18:19:32 17.7 C 4.07 g/m*3 17.7 C 0 km/h
333 23-04-2009 18:31:32 17.4 C 4.15 g/m*3 17.4 C 0 km/h
334 23-04-2009 18:43:32 17.1 C 4.08 g/m*3 17.1 C 0 km/h
335 23-04-2009 18:55:32 16.9 C 4.31 g/m*3 16.9 C 0 km/h
336 23-04-2009 19:07:32 17.9 C 4.12 g/m*3 17.9 C 0 km/h
337 23-04-2009 19:19:31 18.1 C 4.17 g/m*3 18.1 C 0 km/h
338 23-04-2009 19:31:32 16.6 C 4.1 g/m*3 16.6 C 0 km/h
339 23-04-2009 19:43:33 15.4 C 4.2 g/m*3 15.4 C 0 km/h
340 23-04-2009 19:55:31 14.3 C 4.55 g/m*3 14.3 C 0 km/h
341 23-04-2009 20:07:31 14 C 4.58 g/m*3 14 C 0 km/h
342 23-04-2009 20:19:31 13.5 C 4.68 g/m*3 13.5 C 0 km/h
343 23-04-2009 20:31:31 13.4 C 4.65 g/m*3 13.4 C 0 km/h
344 23-04-2009 20:43:31 13.2 C 4.59 g/m*3 13.2 C 0 km/h
345 23-04-2009 20:55:30 12.6 C 4.76 g/m*3 12.6 C 0 km/h
346 23-04-2009 21:07:31 12.2 C 4.75 g/m*3 12.2 C 0 km/h
347 23-04-2009 21:19:30 12.1 C 4.93 g/m*3 12.1 C 0 km/h
348 23-04-2009 21:31:31 11.8 C 5.16 g/m*3 11.8 C 0 km/h
349 23-04-2009 21:43:32 11.7 C 5.23 g/m*3 11.7 C 0 km/h
350 23-04-2009 21:55:30 11.2 C 5.17 g/m*3 11.2 C 0 km/h
Sensor: Nr:Datum:Temp:Abs-Feuchte:Windchill:Wind:
Aussen-T/F 351 23-04-2009 22:07:30 11.2 C 5.27 g/m*3 11.2 C 0 km/h
352 23-04-2009 22:19:30 11 C 5.2 g/m*3 11 C 0 km/h
353 23-04-2009 22:32:31 10.5 C 5.24 g/m*3 10.5 C 0 km/h
354 23-04-2009 22:44:31 10.4 C 5.4 g/m*3 10.4 C 0 km/h
355 23-04-2009 22:56:31 10.1 C 5.39 g/m*3 10.1 C 0 km/h
356 23-04-2009 23:08:32 9.9 C 5.51 g/m*3 9.9 C 0 km/h
357 23-04-2009 23:20:32 9.6 C 5.5 g/m*3 9.6 C 0 km/h
358 23-04-2009 23:32:32 9.5 C 5.55 g/m*3 9.5 C 0 km/h
359 23-04-2009 23:44:32 9.3 C 5.57 g/m*3 9.3 C 0 km/h
360 23-04-2009 23:56:32 9.2 C 5.63 g/m*3 9.2 C 0 km/h

Legende:
   Min
   Max


Maximal/Minimal-Werte vom 21.04.2009 - 23.04.2009

Sensor Min Max Avg
Temp
(Aussen-T/F)
6.2 °C
23-04-2009  04:19:40
26.2 °C
21-04-2009  16:29:49
13.69 °C
Abs-Feuchte
(Aussen-T/F)
3.05 g/m*3
22-04-2009  16:30:42
7.33 g/m*3
21-04-2009  09:53:53
5.22 g/m*3
Windchill
(Aussen-T/F)
6.2 C
23-04-2009  04:19:40
26.2 C
21-04-2009  16:29:49
13.66 C

Die Daten stammen von einer Davis Vantage Pro 2 Wetter-Station und werden unter Linux mit der Software wview2wettercgi und aufbereitet. Alle Angaben erfolgen ohne Gewähr für ihre Vollständigkeit oder Richtigkeit.
Kontakt: Rainer Krienke krienke@uni-koblenz.de . Meine Webseiten an der Uni Koblenz oder privat.
Version: $Revision: 0.78 $